createdAt,value
2022-08-09T00:00:58.001Z,17.97
2022-08-09T00:04:05.620Z,17.80
2022-08-09T00:06:19.472Z,17.61
2022-08-09T00:08:51.870Z,17.54
2022-08-09T00:11:24.797Z,17.55
2022-08-09T00:13:53.281Z,17.66
2022-08-09T00:16:26.429Z,17.51
2022-08-09T00:19:09.373Z,17.49
2022-08-09T00:21:43.180Z,17.38
2022-08-09T00:24:24.705Z,17.33
2022-08-09T00:26:56.072Z,17.34
2022-08-09T00:29:39.738Z,17.40
2022-08-09T00:32:26.630Z,17.37
2022-08-09T00:35:03.340Z,17.26
2022-08-09T00:37:32.503Z,17.19
2022-08-09T00:40:13.434Z,17.13
2022-08-09T00:44:19.798Z,17.16
2022-08-09T00:45:34.864Z,17.15
2022-08-09T00:48:04.487Z,17.08
2022-08-09T00:50:33.805Z,16.98
2022-08-09T00:53:10.317Z,16.98
2022-08-09T00:56:05.226Z,16.89
2022-08-09T00:58:31.560Z,16.86
2022-08-09T01:01:00.374Z,16.85
2022-08-09T01:03:32.773Z,16.95
2022-08-09T01:06:54.479Z,17.00
2022-08-09T01:09:48.465Z,16.86
2022-08-09T01:12:32.722Z,16.79
2022-08-09T01:15:06.098Z,16.77
2022-08-09T01:17:57.791Z,16.73
2022-08-09T01:20:34.792Z,16.71
2022-08-09T01:24:02.902Z,16.80
2022-08-09T01:27:07.913Z,16.67
2022-08-09T01:29:55.711Z,16.59
2022-08-09T01:32:33.885Z,16.60
2022-08-09T01:35:28.990Z,16.51
2022-08-09T01:38:09.697Z,16.50
2022-08-09T01:40:42.963Z,16.53
2022-08-09T01:43:12.061Z,16.43
2022-08-09T01:45:46.358Z,16.30
2022-08-09T01:48:24.055Z,16.21
2022-08-09T01:50:59.881Z,16.17
2022-08-09T01:53:29.260Z,16.06
2022-08-09T01:56:11.434Z,15.99
2022-08-09T01:58:40.470Z,15.93
2022-08-09T02:01:09.918Z,15.87
2022-08-09T02:03:48.233Z,15.79
2022-08-09T02:06:38.779Z,15.78
2022-08-09T02:09:16.418Z,15.78
2022-08-09T02:11:45.315Z,15.76
2022-08-09T02:14:26.207Z,15.77
2022-08-09T02:17:15.434Z,15.85
2022-08-09T02:19:45.037Z,15.83
2022-08-09T02:22:41.009Z,15.90
2022-08-09T02:25:23.171Z,15.98
2022-08-09T02:28:05.155Z,15.96
2022-08-09T02:30:39.199Z,16.05
2022-08-09T02:33:17.008Z,16.10
2022-08-09T02:36:02.860Z,16.06
2022-08-09T02:38:36.375Z,15.92
2022-08-09T02:41:11.132Z,16.08
2022-08-09T02:43:54.736Z,16.11
2022-08-09T02:46:27.892Z,16.06
2022-08-09T02:49:03.045Z,15.99
2022-08-09T02:51:37.039Z,15.92
2022-08-09T02:54:13.996Z,15.89
2022-08-09T02:56:51.272Z,15.86
2022-08-09T02:59:25.818Z,15.79
2022-08-09T03:02:05.893Z,15.78
2022-08-09T03:04:36.269Z,15.77
2022-08-09T03:07:12.286Z,15.74
2022-08-09T03:09:56.372Z,15.78
2022-08-09T03:12:26.040Z,15.64
2022-08-09T03:14:57.419Z,15.61
2022-08-09T03:17:27.103Z,15.53
2022-08-09T03:20:05.000Z,15.46
2022-08-09T03:22:41.523Z,15.41
2022-08-09T03:25:26.125Z,15.40
2022-08-09T03:28:01.853Z,15.43
2022-08-09T03:30:34.283Z,15.54
2022-08-09T03:33:17.753Z,15.62
2022-08-09T03:36:14.021Z,15.74
2022-08-09T03:38:43.080Z,15.81
2022-08-09T03:41:15.592Z,15.94
2022-08-09T03:44:03.265Z,15.94
2022-08-09T03:46:33.833Z,15.92
2022-08-09T03:49:04.385Z,16.02
2022-08-09T03:51:55.455Z,16.11
2022-08-09T03:54:38.553Z,16.14
2022-08-09T03:57:17.916Z,16.12
2022-08-09T03:59:54.771Z,16.28
2022-08-09T04:02:29.119Z,16.34
2022-08-09T04:05:05.813Z,16.41
2022-08-09T04:07:52.843Z,16.43
2022-08-09T04:10:29.133Z,16.50
2022-08-09T04:13:04.020Z,16.59
2022-08-09T04:15:52.392Z,16.57
2022-08-09T04:18:21.471Z,16.68
2022-08-09T04:20:51.228Z,16.87
2022-08-09T04:23:24.475Z,17.05
2022-08-09T04:25:54.167Z,17.18
2022-08-09T04:28:30.720Z,17.36
2022-08-09T04:31:09.883Z,17.50
2022-08-09T04:33:52.552Z,17.58
2022-08-09T04:36:27.683Z,17.68
2022-08-09T04:39:01.535Z,17.78
2022-08-09T04:41:32.364Z,17.89
2022-08-09T04:44:11.098Z,18.03
2022-08-09T04:46:58.932Z,18.16
2022-08-09T04:49:53.846Z,18.22
2022-08-09T04:52:27.482Z,18.32
2022-08-09T04:54:57.087Z,18.36
2022-08-09T04:57:25.407Z,18.45
2022-08-09T04:59:55.813Z,18.64
2022-08-09T05:02:27.530Z,18.63
2022-08-09T05:04:56.154Z,18.70
2022-08-09T05:07:29.278Z,18.85
2022-08-09T05:10:01.620Z,18.79
2022-08-09T05:12:31.140Z,18.71
2022-08-09T05:15:01.403Z,18.84
2022-08-09T05:18:38.909Z,18.91
2022-08-09T05:20:20.115Z,19.12
2022-08-09T05:23:53.812Z,19.13
2022-08-09T05:25:38.198Z,19.21
2022-08-09T05:28:06.236Z,19.29
2022-08-09T05:30:34.573Z,19.49
2022-08-09T05:33:04.720Z,19.44
2022-08-09T05:35:45.028Z,19.44
2022-08-09T05:38:22.167Z,19.54
2022-08-09T05:40:50.796Z,19.77
2022-08-09T05:43:20.638Z,19.92
2022-08-09T05:45:55.947Z,20.23
2022-08-09T05:48:32.728Z,20.47
2022-08-09T05:51:29.951Z,20.57
2022-08-09T05:53:56.530Z,20.91
2022-08-09T05:56:26.939Z,21.20
2022-08-09T05:58:58.701Z,21.35
2022-08-09T06:01:33.599Z,21.50
2022-08-09T06:04:10.401Z,21.57
2022-08-09T06:06:45.151Z,21.76
2022-08-09T06:09:23.221Z,22.03
2022-08-09T06:12:06.587Z,22.11
2022-08-09T06:14:35.908Z,22.20
2022-08-09T06:17:05.168Z,22.19
2022-08-09T06:19:37.648Z,22.20
2022-08-09T06:22:06.970Z,22.30
2022-08-09T06:24:43.617Z,22.36
2022-08-09T06:27:11.294Z,22.45
2022-08-09T06:29:48.041Z,22.54
2022-08-09T06:33:00.111Z,22.99
2022-08-09T06:35:15.153Z,23.18
2022-08-09T06:37:53.103Z,23.25
2022-08-09T06:40:30.709Z,23.17
2022-08-09T06:43:01.263Z,23.34
2022-08-09T06:46:06.593Z,23.61
2022-08-09T06:48:17.784Z,23.98
2022-08-09T06:50:59.464Z,24.14
2022-08-09T06:53:27.618Z,24.12
2022-08-09T06:56:07.426Z,24.21
2022-08-09T07:00:47.569Z,24.16
2022-08-09T07:01:35.763Z,24.10
2022-08-09T07:04:19.677Z,24.20
2022-08-09T07:06:53.309Z,24.46
2022-08-09T07:09:54.991Z,24.63
2022-08-09T07:12:13.737Z,24.89
2022-08-09T07:14:51.153Z,25.07
2022-08-09T07:17:20.334Z,25.40
2022-08-09T07:19:50.995Z,26.35
2022-08-09T07:22:27.445Z,26.97
2022-08-09T07:25:05.585Z,27.66
2022-08-09T07:27:43.094Z,28.34
2022-08-09T07:30:21.763Z,29.01
2022-08-09T07:32:53.056Z,29.49
2022-08-09T07:35:23.323Z,29.86
2022-08-09T07:37:54.024Z,29.72
2022-08-09T07:40:37.422Z,30.00
2022-08-09T07:43:16.839Z,30.21
2022-08-09T07:45:45.053Z,30.34
2022-08-09T07:48:29.449Z,30.50
2022-08-09T07:51:10.262Z,30.08
2022-08-09T07:54:04.799Z,30.15
2022-08-09T07:56:37.052Z,30.03
2022-08-09T07:59:21.219Z,30.03
2022-08-09T08:02:01.387Z,29.68
2022-08-09T08:04:31.804Z,29.67
2022-08-09T08:07:15.199Z,29.58
2022-08-09T08:09:59.748Z,29.54
2022-08-09T08:12:35.756Z,28.83
2022-08-09T08:15:07.415Z,28.75
2022-08-09T08:17:54.780Z,28.37
2022-08-09T08:20:30.776Z,28.70
2022-08-09T08:23:06.477Z,28.65
2022-08-09T08:25:50.399Z,28.59
2022-08-09T08:28:35.263Z,28.52
2022-08-09T08:31:14.025Z,28.37
2022-08-09T08:33:52.468Z,28.17
2022-08-09T08:36:28.963Z,28.04
2022-08-09T08:38:58.375Z,28.30
2022-08-09T08:41:42.113Z,28.85
2022-08-09T08:44:16.594Z,29.38
2022-08-09T08:47:03.248Z,30.04
2022-08-09T08:49:38.914Z,31.04
2022-08-09T08:52:58.521Z,31.61
2022-08-09T08:55:06.336Z,31.68
2022-08-09T08:57:35.894Z,31.79
2022-08-09T09:00:17.049Z,31.92
2022-08-09T09:03:00.374Z,31.97
2022-08-09T09:06:00.008Z,32.15
2022-08-09T09:08:30.419Z,32.06
2022-08-09T09:11:06.251Z,32.04
2022-08-09T09:13:50.196Z,31.98
2022-08-09T09:16:30.225Z,31.90
2022-08-09T09:22:04.194Z,33.45
2022-08-09T09:24:38.848Z,33.64
2022-08-09T09:27:09.380Z,32.96
2022-08-09T09:32:38.126Z,34.21
2022-08-09T09:35:09.963Z,35.02
2022-08-09T09:37:40.722Z,34.75
2022-08-09T09:40:11.695Z,34.68
2022-08-09T09:42:46.366Z,33.88
2022-08-09T09:45:25.740Z,33.55
2022-08-09T09:47:58.547Z,33.02
2022-08-09T09:50:51.020Z,32.99
2022-08-09T09:53:57.339Z,32.81
2022-08-09T09:56:20.141Z,32.09
2022-08-09T09:59:02.339Z,31.99
2022-08-09T10:01:37.452Z,31.82
2022-08-09T10:04:16.268Z,32.07
2022-08-09T10:06:51.785Z,31.97
2022-08-09T10:09:23.889Z,32.04
2022-08-09T10:12:14.474Z,31.86
2022-08-09T10:14:49.439Z,31.59
2022-08-09T10:17:39.610Z,31.03
2022-08-09T10:20:27.111Z,30.97
2022-08-09T10:23:17.177Z,30.82
2022-08-09T10:26:07.713Z,30.67
2022-08-09T10:28:38.412Z,30.43
2022-08-09T10:34:09.610Z,29.58
2022-08-09T10:36:45.245Z,29.59
2022-08-09T10:39:15.620Z,29.79
2022-08-09T10:41:47.754Z,29.82
2022-08-09T10:44:25.401Z,29.78
2022-08-09T10:48:19.203Z,29.55
2022-08-09T10:51:13.723Z,29.23
2022-08-09T10:54:04.699Z,29.13
2022-08-09T10:56:38.698Z,28.75
2022-08-09T10:59:30.806Z,28.62
2022-08-09T11:03:14.732Z,28.74
2022-08-09T11:05:25.297Z,28.48
2022-08-09T11:08:17.747Z,28.06
2022-08-09T11:11:00.761Z,28.20
2022-08-09T11:13:50.661Z,28.31
2022-08-09T11:16:39.143Z,28.27
2022-08-09T11:19:10.290Z,28.74
2022-08-09T11:22:10.504Z,28.93
2022-08-09T11:25:15.074Z,29.03
2022-08-09T11:28:04.602Z,29.27
2022-08-09T11:30:36.142Z,29.53
2022-08-09T11:33:05.938Z,29.32
2022-08-09T11:35:53.613Z,28.97
2022-08-09T11:38:32.196Z,28.90
2022-08-09T11:41:14.219Z,28.90
2022-08-09T11:43:49.089Z,29.09
2022-08-09T11:46:18.473Z,29.27
2022-08-09T11:49:05.102Z,29.22
2022-08-09T11:53:02.718Z,29.29
2022-08-09T11:55:51.602Z,28.74
2022-08-09T11:58:30.497Z,28.72
2022-08-09T12:01:03.616Z,28.65
2022-08-09T12:03:56.114Z,28.77
2022-08-09T12:06:32.207Z,28.78
2022-08-09T12:09:19.513Z,29.09
2022-08-09T12:12:05.937Z,29.03
2022-08-09T12:15:03.873Z,28.99
2022-08-09T12:17:34.497Z,29.10
2022-08-09T12:20:21.694Z,29.17
2022-08-09T12:22:55.975Z,29.20
2022-08-09T12:25:37.685Z,29.27
2022-08-09T12:29:12.697Z,29.27
2022-08-09T12:31:58.113Z,29.26
2022-08-09T12:34:05.259Z,28.64
2022-08-09T12:36:34.086Z,28.36
2022-08-09T12:39:14.664Z,28.47
2022-08-09T12:41:42.617Z,28.41
2022-08-09T12:44:13.148Z,28.88
2022-08-09T12:46:49.911Z,28.52
2022-08-09T12:49:20.941Z,28.32
2022-08-09T12:52:02.669Z,28.34
2022-08-09T12:56:14.893Z,28.15
2022-08-09T12:57:47.054Z,27.66
2022-08-09T13:00:25.145Z,27.89
2022-08-09T13:03:00.688Z,27.95
2022-08-09T13:05:51.475Z,27.86
2022-08-09T13:08:40.221Z,27.88
2022-08-09T13:11:23.133Z,27.85
2022-08-09T13:14:41.540Z,27.62
2022-08-09T13:16:54.324Z,27.40
2022-08-09T13:20:07.411Z,27.43
2022-08-09T13:22:35.952Z,27.17
2022-08-09T13:25:14.308Z,27.33
2022-08-09T13:27:54.305Z,27.21
2022-08-09T13:31:10.842Z,26.76
2022-08-09T13:33:23.189Z,26.84
2022-08-09T13:36:24.421Z,26.83
2022-08-09T13:38:55.688Z,27.40
2022-08-09T13:41:53.963Z,26.95
2022-08-09T13:44:16.845Z,26.77
2022-08-09T13:47:26.575Z,26.73
2022-08-09T13:49:39.701Z,27.27
2022-08-09T13:52:24.662Z,27.49
2022-08-09T13:54:59.389Z,27.40
2022-08-09T13:57:36.702Z,27.46
2022-08-09T14:00:19.566Z,27.56
2022-08-09T14:03:03.910Z,27.26
2022-08-09T14:06:01.460Z,26.89
2022-08-09T14:08:28.377Z,26.01
2022-08-09T14:10:57.157Z,25.44
2022-08-09T14:14:15.643Z,25.31
2022-08-09T14:16:16.781Z,24.88
2022-08-09T14:18:49.764Z,24.72
2022-08-09T14:21:23.067Z,24.43
2022-08-09T14:23:55.214Z,24.60
2022-08-09T14:26:30.517Z,24.63
2022-08-09T14:29:08.284Z,24.81
2022-08-09T14:31:54.941Z,24.72
2022-08-09T14:34:31.956Z,24.75
2022-08-09T14:37:02.180Z,24.80
2022-08-09T14:39:45.445Z,24.96
2022-08-09T14:42:30.469Z,24.98
2022-08-09T14:46:38.970Z,24.90
2022-08-09T14:47:57.408Z,24.79
2022-08-09T14:50:33.178Z,24.78
2022-08-09T14:53:11.054Z,24.64
2022-08-09T14:55:41.954Z,24.56
2022-08-09T14:58:11.171Z,24.43
2022-08-09T15:00:42.550Z,24.43
2022-08-09T15:03:19.988Z,24.37
2022-08-09T15:05:51.442Z,24.39
2022-08-09T15:08:26.387Z,24.38
2022-08-09T15:11:01.543Z,24.50
2022-08-09T15:13:48.663Z,24.42
2022-08-09T15:16:20.950Z,24.38
2022-08-09T15:18:49.690Z,24.39
2022-08-09T15:22:00.840Z,24.37
2022-08-09T15:24:12.674Z,24.35
2022-08-09T15:26:46.519Z,24.25
2022-08-09T15:30:55.476Z,24.28
2022-08-09T15:32:03.819Z,24.27
2022-08-09T15:34:35.469Z,24.32
2022-08-09T15:37:37.910Z,24.11
2022-08-09T15:40:15.304Z,24.12
2022-08-09T15:42:48.955Z,24.20
2022-08-09T15:45:21.700Z,24.27
2022-08-09T15:48:05.074Z,24.33
2022-08-09T15:50:39.275Z,24.26
2022-08-09T15:53:17.940Z,24.14
2022-08-09T15:56:21.148Z,24.17
2022-08-09T15:58:43.483Z,24.28
2022-08-09T16:01:11.497Z,24.19
2022-08-09T16:03:41.795Z,24.20
2022-08-09T16:06:28.321Z,24.14
2022-08-09T16:09:01.152Z,24.07
2022-08-09T16:11:33.282Z,24.03
2022-08-09T16:14:07.182Z,24.02
2022-08-09T16:16:41.915Z,23.98
2022-08-09T16:19:14.066Z,24.12
2022-08-09T16:21:42.991Z,24.09
2022-08-09T16:24:29.882Z,24.08
2022-08-09T16:27:02.325Z,23.92
2022-08-09T16:29:36.649Z,23.86
2022-08-09T16:32:19.257Z,23.59
2022-08-09T16:34:57.818Z,23.40
2022-08-09T16:37:53.118Z,23.22
2022-08-09T16:40:20.387Z,23.17
2022-08-09T16:42:58.491Z,23.11
2022-08-09T16:45:27.140Z,23.05
2022-08-09T16:48:41.448Z,22.93
2022-08-09T16:50:58.726Z,22.82
2022-08-09T16:53:32.242Z,22.78
2022-08-09T16:56:06.000Z,22.82
2022-08-09T16:58:36.096Z,22.75
2022-08-09T17:01:05.466Z,22.71
2022-08-09T17:03:33.367Z,22.56
2022-08-09T17:06:07.161Z,22.39
2022-08-09T17:08:47.087Z,22.24
2022-08-09T17:11:40.723Z,22.19
2022-08-09T17:14:26.577Z,22.31
2022-08-09T17:17:01.541Z,22.06
2022-08-09T17:20:04.915Z,21.92
2022-08-09T17:22:30.892Z,21.89
2022-08-09T17:25:03.678Z,21.67
2022-08-09T17:27:38.238Z,21.68
2022-08-09T17:30:12.983Z,21.54
2022-08-09T17:32:45.453Z,21.52
2022-08-09T17:35:14.843Z,21.43
2022-08-09T17:38:02.453Z,21.51
2022-08-09T17:40:34.497Z,21.41
2022-08-09T17:43:32.003Z,21.24
2022-08-09T17:46:03.580Z,21.11
2022-08-09T17:48:39.779Z,21.10
2022-08-09T17:51:19.114Z,20.99
2022-08-09T17:53:53.009Z,20.83
2022-08-09T17:56:29.213Z,20.71
2022-08-09T17:59:09.002Z,20.42
2022-08-09T18:02:03.682Z,20.34
2022-08-09T18:04:25.274Z,20.08
2022-08-09T18:07:23.748Z,19.89
2022-08-09T18:09:42.790Z,19.67
2022-08-09T18:12:19.407Z,19.49
2022-08-09T18:14:54.490Z,19.35
2022-08-09T18:17:27.739Z,19.23
2022-08-09T18:20:56.209Z,19.05
2022-08-09T18:23:04.960Z,19.02
2022-08-09T18:25:50.310Z,19.29
2022-08-09T18:30:41.930Z,19.34
2022-08-09T18:31:12.039Z,19.28
2022-08-09T18:33:40.616Z,19.21
2022-08-09T18:36:14.351Z,19.22
2022-08-09T18:38:57.553Z,19.15
2022-08-09T18:41:34.371Z,19.13
2022-08-09T18:44:12.992Z,18.94
2022-08-09T18:46:46.010Z,18.65
2022-08-09T18:49:26.218Z,18.44
2022-08-09T18:51:55.151Z,18.29
2022-08-09T18:54:28.806Z,18.14
2022-08-09T18:57:06.069Z,18.10
2022-08-09T18:59:37.516Z,18.19
2022-08-09T19:02:19.107Z,18.22
2022-08-09T19:04:47.447Z,18.12
2022-08-09T19:07:16.514Z,18.14
2022-08-09T19:10:17.387Z,18.02
2022-08-09T19:12:36.699Z,17.81
2022-08-09T19:15:07.079Z,17.73
2022-08-09T19:17:54.560Z,17.55
2022-08-09T19:20:24.548Z,17.50
2022-08-09T19:22:54.447Z,17.41
2022-08-09T19:25:41.951Z,17.27
2022-08-09T19:28:13.452Z,17.24
2022-08-09T19:30:44.609Z,17.19
2022-08-09T19:33:19.465Z,17.19
2022-08-09T19:35:58.035Z,17.23
2022-08-09T19:38:27.726Z,17.24
2022-08-09T19:41:00.431Z,17.24
2022-08-09T19:44:02.160Z,17.27
2022-08-09T19:46:17.061Z,17.23
2022-08-09T19:50:05.369Z,17.28
2022-08-09T19:51:55.741Z,17.38
2022-08-09T19:54:25.080Z,17.41
2022-08-09T19:56:54.057Z,17.38
2022-08-09T19:59:58.343Z,17.45
2022-08-09T20:02:17.168Z,17.45
2022-08-09T20:05:01.171Z,17.47
2022-08-09T20:07:33.975Z,17.51
2022-08-09T20:10:22.103Z,17.44
2022-08-09T20:12:52.033Z,17.39
2022-08-09T20:16:35.773Z,17.36
2022-08-09T20:18:08.714Z,17.42
2022-08-09T20:20:37.861Z,17.40
2022-08-09T20:23:06.924Z,17.33
2022-08-09T20:25:49.572Z,17.27
2022-08-09T20:28:34.275Z,17.27
2022-08-09T20:31:04.982Z,17.35
2022-08-09T20:33:39.043Z,17.33
2022-08-09T20:36:12.947Z,17.25
2022-08-09T20:41:35.003Z,17.29
2022-08-09T20:44:09.978Z,17.14
2022-08-09T20:46:44.744Z,17.07
2022-08-09T20:49:15.846Z,17.07
2022-08-09T20:51:50.360Z,16.92
2022-08-09T20:54:18.520Z,16.82
2022-08-09T20:56:49.716Z,16.84
2022-08-09T20:59:24.995Z,16.69
2022-08-09T21:02:11.871Z,16.64
2022-08-09T21:05:53.445Z,16.52
2022-08-09T21:07:40.223Z,16.38
2022-08-09T21:10:10.932Z,16.37
2022-08-09T21:12:39.713Z,16.21
2022-08-09T21:15:12.553Z,16.18
2022-08-09T21:18:23.294Z,16.04
2022-08-09T21:20:30.708Z,15.96
2022-08-09T21:23:00.549Z,15.91
2022-08-09T21:25:55.559Z,15.81
2022-08-09T21:28:36.579Z,15.75
2022-08-09T21:31:16.653Z,15.83
2022-08-09T21:33:51.668Z,15.73
2022-08-09T21:36:28.088Z,15.68
2022-08-09T21:38:58.803Z,15.62
2022-08-09T21:42:03.854Z,15.53
2022-08-09T21:44:32.959Z,15.43
2022-08-09T21:47:07.640Z,15.44
2022-08-09T21:49:39.248Z,15.43
2022-08-09T21:52:16.969Z,15.32
2022-08-09T21:54:59.706Z,15.17
2022-08-09T21:57:38.495Z,15.06
2022-08-09T22:00:33.574Z,15.02
2022-08-09T22:03:06.972Z,14.91
2022-08-09T22:05:42.474Z,14.84
2022-08-09T22:08:14.664Z,14.75
2022-08-09T22:11:49.842Z,14.81
2022-08-09T22:13:36.624Z,14.79
2022-08-09T22:16:07.146Z,14.69
2022-08-09T22:18:44.173Z,14.61
2022-08-09T22:21:24.358Z,14.55
2022-08-09T22:23:59.345Z,14.49
2022-08-09T22:26:35.512Z,14.48
2022-08-09T22:29:09.897Z,14.45
2022-08-09T22:31:50.421Z,14.42
2022-08-09T22:34:26.696Z,14.55
2022-08-09T22:36:58.962Z,14.49
2022-08-09T22:39:56.360Z,14.44
2022-08-09T22:42:21.430Z,14.38
2022-08-09T22:45:00.286Z,14.31
2022-08-09T22:48:35.577Z,14.25
2022-08-09T22:50:29.751Z,14.25
2022-08-09T22:52:58.807Z,14.28
2022-08-09T22:56:06.465Z,14.38
2022-08-09T22:58:20.299Z,14.28
2022-08-09T23:00:59.165Z,14.24
2022-08-09T23:04:02.535Z,14.16
2022-08-09T23:06:14.705Z,14.10
2022-08-09T23:09:00.505Z,14.04
2022-08-09T23:11:28.092Z,14.01
2022-08-09T23:13:55.903Z,13.99
2022-08-09T23:16:23.759Z,13.97
2022-08-09T23:18:51.394Z,13.97
2022-08-09T23:21:25.184Z,14.07
2022-08-09T23:24:05.496Z,13.95
2022-08-09T23:26:39.334Z,13.86
2022-08-09T23:29:11.639Z,13.92
2022-08-09T23:31:42.678Z,13.84
2022-08-09T23:34:10.803Z,13.80
2022-08-09T23:36:38.412Z,13.72
2022-08-09T23:39:07.877Z,13.75
2022-08-09T23:41:36.271Z,13.75
2022-08-09T23:44:04.377Z,13.70
2022-08-09T23:46:32.973Z,13.65
2022-08-09T23:49:01.029Z,13.63
2022-08-09T23:51:29.090Z,13.58
2022-08-09T23:54:00.729Z,13.55
2022-08-09T23:56:53.615Z,13.53
2022-08-09T23:59:24.202Z,13.55
